Startpagina
METAR-TAF:

METAR-TAF

Vliegvelden :

Pago Pago, Kleine afgelegen eilanden van de Verenigde Staten

breedte: 14-20S, lengte: 170-43W, hoogte: 3 m

Actueel weer

Dit bericht is 58 minuten geleden gemaakt, om 06:50 UTC
Wind 12 kt uit het oostzuidoosten
Temperatuur 27°C
Vochtigheid 84%
Druk 1011 hPa
Zicht: 16.1 km
Verspreide wolken op 1700 ft

METAR: NSTU 220650Z 12012KT 10SM SCT017 27/24 A2984 RMK SLP107 T02730238

Tijdstip: 20:48 (07:48 UTC)

Verwachting

Dit bericht is 2 uur en het 14 minuten geleden gemaakt, om 05:34 UTC
Verwachting geldig van 22 om 06 UTC tot 23 om 06 UTC
Wind 11 kt uit het oosten
Zicht: 10 km
Verspreide wolken op 2000 ft
Verspreide wolken op 4000 ft
buien in de omgeving

TAF: NSTU 220534Z 2206/2306 10011KT P6SM VCSH SCT020 SCT040

Waarnemingen en weersverwachtingen van meer dan 4000 vliegvelden (METAR en TAF).

De beschikbare stations zijn de gele en rode punten op de kaart.

Ga met uw muis naar het station om de naam te zien.

Klik dan om waarnemingen en weersverwachtingen te zien.

kaart wijzigen: klik op de groene knoppen met een zwart kruis om in te zoomen, op de groene knop met een streepje om uit te zoomen of op de groene pijlen voor aangrenzende kaarten.


METAR-TAF: